Home Latest Filings Latest Buys Latest Sells Institutions Derivatives Hot Buys Data Screener Email Alerts Insider Charts
Our LatestBuys shows insider buys grouped by companies.
Members can see real-time insider transactions as well as historical ones. Become a Member
Latest Buys Filed . Total 177 Records.
Buy(P) /
Sell(S)
P/S date Filed Date Company Symbol Insider Relationship Share Amt. Unit Price Total Proceeds Shares Owned Details
P 2019-05-17 2019-05-17 12:26:01.0 COMMUNITY WEST BANCSHARES / CWBC Plourd Martin E CEO 1,000 $10.18 $10,180.00 70,000 view
P 2019-05-17 2019-05-17 12:27:43.0 VERMILLION, INC. VRML Beechey Robert Harry CFO 5,000 $1.26 $6,292.00 205,000 view
P 2019-05-17 2019-05-17 14:22:23.0 Northwest Bancshares, Inc. NWBI Hunter Timothy M director 4,000 $17.15 $68,600.00 21,800 view
P 2019-05-17 2019-05-17 15:02:12.0 CUBIC CORP /DE/ CUB GUILES EDWIN A director 100 $62.31 $6,231.00 100 view
P 2019-05-17 2019-05-17 15:02:12.0 CUBIC CORP /DE/ CUB GUILES EDWIN A director 3 $62.25 $186.75 103 view
P 2019-05-17 2019-05-17 15:02:12.0 CUBIC CORP /DE/ CUB GUILES EDWIN A director 100 $62.25 $6,225.00 203 view
P 2019-05-17 2019-05-17 15:02:12.0 CUBIC CORP /DE/ CUB GUILES EDWIN A director 100 $62.32 $6,232.00 303 view
P 2019-05-17 2019-05-17 15:02:12.0 CUBIC CORP /DE/ CUB GUILES EDWIN A director 100 $62.25 $6,225.00 403 view
P 2019-05-17 2019-05-17 15:02:12.0 CUBIC CORP /DE/ CUB GUILES EDWIN A director 1 $62.31 $62.31 404 view
P 2019-05-17 2019-05-17 15:02:12.0 CUBIC CORP /DE/ CUB GUILES EDWIN A director 100 $62.37 $6,237.00 504 view
P 2019-05-17 2019-05-17 15:02:12.0 CUBIC CORP /DE/ CUB GUILES EDWIN A director 100 $62.28 $6,228.00 604 view
P 2019-05-17 2019-05-17 15:02:12.0 CUBIC CORP /DE/ CUB GUILES EDWIN A director 1 $62.31 $62.31 605 view
P 2019-05-17 2019-05-17 15:02:12.0 CUBIC CORP /DE/ CUB GUILES EDWIN A director 28 $62.31 $1,744.68 633 view
P 2019-05-17 2019-05-17 15:02:12.0 CUBIC CORP /DE/ CUB GUILES EDWIN A director 98 $62.31 $6,106.38 731 view
P 2019-05-17 2019-05-17 15:02:12.0 CUBIC CORP /DE/ CUB GUILES EDWIN A director 97 $62.17 $6,030.49 828 view
P 2019-05-17 2019-05-17 15:02:12.0 CUBIC CORP /DE/ CUB GUILES EDWIN A director 1 $62.31 $62.31 829 view
P 2019-05-17 2019-05-17 15:02:12.0 CUBIC CORP /DE/ CUB GUILES EDWIN A director 100 $62.21 $6,221.00 929 view
P 2019-05-17 2019-05-17 15:02:12.0 CUBIC CORP /DE/ CUB GUILES EDWIN A director 71 $62.31 $4,424.01 1,000 view
P 2019-05-17 2019-05-17 15:46:00.0 LIVE VENTURES Inc LIVE Isaac Jon CEO 7,572 $0.00 $0.00 1,521,750 view
P 2019-05-17 2019-05-17 16:07:43.0 DIGIRAD CORP DRAD Noble David J. CFO 8,538 $0.65 $5,549.70 175,000 view
P 2019-05-17 2019-05-17 16:07:49.0 NAVIDEA BIOPHARMACEUTICALS, INC. NAVB Latkin Jed CEO 1,000 $1.46 $1,462.90 11,950 view
P 2019-05-17 2019-05-17 16:42:24.0 AMBAC FINANCIAL GROUP INC AMBC LeBlanc Claude CEO 1,500 $16.46 $24,690.00 95,030 view
P 2019-05-17 2019-05-17 16:42:24.0 AMBAC FINANCIAL GROUP INC AMBC LeBlanc Claude CEO 2,000 $16.50 $33,000.00 97,030 view
P 2019-05-17 2019-05-17 16:43:20.0 Montage Resources Corp MR HODGES MICHAEL L CFO 1,000 $9.96 $9,958.00 1,000 view
P 2019-05-17 2019-05-17 17:01:46.0 Fiesta Restaurant Group, Inc. FRGI Jefferies Financial Group Inc. 50,000 $13.95 $697,485.00 4,424,070 view
P 2019-05-17 2019-05-17 17:05:45.0 Aeglea BioTherapeutics, Inc. AGLE Quinn Anthony G. CEO 6,218 $6.65 $41,335.40 295,146 view
P 2019-05-17 2019-05-17 17:35:18.0 HIGHWAY HOLDINGS LTD HIHO Zeff Capital, LP 10% owner 5,852 $2.77 $16,210.00 403,865 view
P 2019-05-17 2019-05-17 17:54:59.0 BALLANTYNE STRONG, INC. BTN MOGLIA JOSEPH H CEO 3,213 $2.87 $9,212.96 1,232,900 view
P 2019-05-17 2019-05-17 17:54:59.0 BALLANTYNE STRONG, INC. BTN MOGLIA JOSEPH H CEO 3,213 $2.87 $9,212.96 1,248,000 view
P 2019-05-17 2019-05-17 18:55:59.0 Endurance International Group Holdings, Inc. EIGI OKUMUS AHMET H various various 10% owner 70,000 $4.77 $334,075.00 1.45331E7 view
P 2019-05-17 2019-05-17 18:55:59.0 Intrepid Potash, Inc. IPI Jornayvaz Robert P III CEO 25,835 $3.27 $84,480.50 1.82801E7 view
P 2019-05-17 2019-05-17 18:59:51.0 LIFETIME BRANDS, INC LCUT JAFFE DAVID various various various various various various various various 10% owner 19,300 $9.60 $185,216.00 5,993,120 view
P 2019-05-17 2019-05-17 19:26:00.0 Watford Holdings Ltd. WTRE Hawley Robert L. CFO 1,846 $25.30 $46,703.80 7,846 view
P 2019-05-17 2019-05-17 19:26:00.0 Safehold Inc. SAFE ISTAR INC. 10% owner 4,963 $28.15 $139,708.00 7,854,070 view
P 2019-05-16 2019-05-17 08:08:43.0 LADENBURG THALMANN FINANCIAL SERVICES INC. LTS Liebowitz Michael director 25,000 $3.27 $81,750.00 25,000 view
P 2019-05-16 2019-05-17 08:08:43.0 LADENBURG THALMANN FINANCIAL SERVICES INC. LTS LAMPEN RICHARD CEO 10,000 $3.31 $33,139.00 3,008,670 view
P 2019-05-16 2019-05-17 09:10:53.0 PENNANTPARK INVESTMENT CORP PNNT PENN ARTHUR H CEO 16,500 $6.59 $108,763.00 712,423 view
P 2019-05-16 2019-05-17 09:15:24.0 Hill International, Inc. HIL CHADWICK JAMES M director 209,790 $2.29 $480,419.00 1,328,240 view
P 2019-05-16 2019-05-17 09:15:24.0 Hill International, Inc. HIL CHADWICK JAMES M director 15,791 $2.29 $36,161.40 88,556 view
P 2019-05-16 2019-05-17 10:05:01.0 TEXAS PACIFIC LAND TRUST TPL HORIZON KINETICS ASSET MANAGEMENT LLC 10% owner 36 $842.57 $30,332.50 297,004 view
P 2019-05-16 2019-05-17 10:47:19.0 BANK OF THE JAMES FINANCIAL GROUP INC BOTJ BRYANT WILLIAM C III director 76 $14.69 $1,116.44 31,031 view
P 2019-05-16 2019-05-17 10:52:08.0 WESTERN ASSET GLOBAL HIGH INCOME FUND INC. EHI Weinstein Boaz various 10% owner 16,277 $9.73 $158,375.00 7,573,930 view
P 2019-05-16 2019-05-17 11:12:33.0 Pathfinder Bancorp, Inc. PBHC SCHNEIDER THOMAS W CEO 1,472 $15.25 $22,448.00 31,073 view
P 2019-05-16 2019-05-17 11:59:39.0 TIPTREE INC. TIPT Barnes Michael Gene director officer 10% owner (Executive Chairman) 1,307 $6.23 $8,142.61 7,824,320 view
P 2019-05-16 2019-05-17 11:59:39.0 TIPTREE INC. TIPT Barnes Michael Gene director officer 10% owner (Executive Chairman) 100 $6.25 $625.00 7,824,420 view
P 2019-05-16 2019-05-17 11:59:39.0 TIPTREE INC. TIPT Barnes Michael Gene director officer 10% owner (Executive Chairman) 700 $6.26 $4,382.00 7,825,120 view
P 2019-05-16 2019-05-17 11:59:39.0 TIPTREE INC. TIPT Barnes Michael Gene director officer 10% owner (Executive Chairman) 1,270 $6.27 $7,962.90 7,826,390 view
P 2019-05-16 2019-05-17 11:59:39.0 TIPTREE INC. TIPT Barnes Michael Gene director officer 10% owner (Executive Chairman) 31 $6.28 $194.68 7,826,420 view
P 2019-05-16 2019-05-17 11:59:39.0 TIPTREE INC. TIPT Barnes Michael Gene director officer 10% owner (Executive Chairman) 159 $6.29 $1,000.11 7,826,580 view
P 2019-05-16 2019-05-17 12:04:03.0 Hamilton Beach Brands Holding Co HBB BURNS KEITH B officer (VP, Engineering and IT) 100 $18.57 $1,856.79 100 view
P 2019-05-16 2019-05-17 12:04:03.0 Hamilton Beach Brands Holding Co HBB BURNS KEITH B officer (VP, Engineering and IT) 550 $18.57 $10,212.20 650 view
P 2019-05-16 2019-05-17 12:04:03.0 Hamilton Beach Brands Holding Co HBB BURNS KEITH B officer (VP, Engineering and IT) 100 $18.58 $1,857.86 750 view
P 2019-05-16 2019-05-17 12:04:03.0 Hamilton Beach Brands Holding Co HBB BURNS KEITH B officer (VP, Engineering and IT) 1,472 $18.57 $27,331.80 2,222 view
P 2019-05-16 2019-05-17 12:04:03.0 Hamilton Beach Brands Holding Co HBB BURNS KEITH B officer (VP, Engineering and IT) 278 $18.65 $5,184.31 2,500 view
P 2019-05-16 2019-05-17 12:06:55.0 EVANS & SUTHERLAND COMPUTER CORP ESCC Tim Pierce director 49,600 $0.60 $29,760.00 115,363 view
P 2019-05-16 2019-05-17 12:58:15.0 AMPCO PITTSBURGH CORP AP Fessenden Elizabeth Anne director 3,790 $4.06 $15,392.70 24,718 view
P 2019-05-16 2019-05-17 15:29:09.0 CENTURY BANCORP INC CNBKA EVANGELISTA PAUL A officer (Executive Vice President) 1 $157.20 $161.48 2,081 view
P 2019-05-16 2019-05-17 15:30:24.0 CENTURY BANCORP INC CNBKA SLOANE BARRY R director officer (CEO and President) 1 $157.20 $87.15 1,640 view
P 2019-05-16 2019-05-17 15:45:53.0 FreightCar America, Inc. RAIL MOORE MALCOLM F director 4,000 $6.35 $25,384.80 25,913 view
P 2019-05-16 2019-05-17 16:07:49.0 NAVIDEA BIOPHARMACEUTICALS, INC. NAVB Latkin Jed CEO 1,500 $1.45 $2,180.40 10,950 view
P 2019-05-16 2019-05-17 16:12:14.0 Keurig Dr Pepper Inc. KDP Singer Robert S director 3,000 $28.93 $86,775.90 41,501 view
P 2019-05-16 2019-05-17 16:29:45.0 Kandi Technologies Group, Inc. KNDI ExcelVantage Group LTD CEO 10,000 $4.97 $49,700.00 1.28214E7 view
P 2019-05-16 2019-05-17 16:29:45.0 Opko Health, Inc. OPK Frost Nevada Investments Trust CEO 14,996 $2.02 $30,216.90 2.83622E7 view
P 2019-05-16 2019-05-17 16:29:45.0 Opko Health, Inc. OPK Frost Nevada Investments Trust CEO 53,004 $2.02 $107,068.00 2.84152E7 view
P 2019-05-16 2019-05-17 16:29:45.0 Opko Health, Inc. OPK Frost Nevada Investments Trust CEO 21,160 $2.03 $42,849.00 2.84363E7 view
P 2019-05-16 2019-05-17 16:29:45.0 Opko Health, Inc. OPK Frost Nevada Investments Trust CEO 10,840 $2.03 $22,005.20 2.84472E7 view
P 2019-05-16 2019-05-17 16:41:51.0 ENDONOVO THERAPEUTICS, INC. ENDV Collier Alan Brian CEO 5,000 $0.01 $70.00 2.18004E7 view
P 2019-05-16 2019-05-17 16:41:51.0 ENDONOVO THERAPEUTICS, INC. ENDV Collier Alan Brian CEO 5,000 $0.01 $67.00 2.18054E7 view
P 2019-05-16 2019-05-17 16:41:51.0 ENDONOVO THERAPEUTICS, INC. ENDV Collier Alan Brian CEO 5,000 $0.01 $63.50 2.18104E7 view
P 2019-05-16 2019-05-17 16:41:51.0 ENDONOVO THERAPEUTICS, INC. ENDV Collier Alan Brian CEO 5,000 $0.01 $59.00 2.18154E7 view
P 2019-05-16 2019-05-17 16:41:51.0 ENDONOVO THERAPEUTICS, INC. ENDV Collier Alan Brian CEO 5,000 $0.01 $56.50 2.18204E7 view
P 2019-05-16 2019-05-17 16:41:51.0 ENDONOVO THERAPEUTICS, INC. ENDV Collier Alan Brian CEO 5,000 $0.01 $60.00 2.18254E7 view
P 2019-05-16 2019-05-17 16:41:51.0 ENDONOVO THERAPEUTICS, INC. ENDV Collier Alan Brian CEO 5,000 $0.01 $59.50 2.18304E7 view
P 2019-05-16 2019-05-17 16:41:51.0 ENDONOVO THERAPEUTICS, INC. ENDV Collier Alan Brian CEO 2,000 $0.01 $24.00 2.18324E7 view
P 2019-05-16 2019-05-17 16:41:51.0 ENDONOVO THERAPEUTICS, INC. ENDV Collier Alan Brian CEO 2,000 $0.01 $25.00 2.18344E7 view
P 2019-05-16 2019-05-17 17:01:46.0 Fiesta Restaurant Group, Inc. FRGI Jefferies Financial Group Inc. 53,347 $13.96 $744,612.00 4,374,070 view
P 2019-05-16 2019-05-17 17:05:45.0 Aeglea BioTherapeutics, Inc. AGLE Quinn Anthony G. CEO 5,520 $6.83 $37,690.60 288,928 view
P 2019-05-16 2019-05-17 17:20:12.0 CAPITAL SENIOR LIVING CORP CSU Plochocki Steven T director 50,000 $4.05 $202,500.00 69,947 view
P 2019-05-16 2019-05-17 17:24:00.0 TRANSATLANTIC PETROLEUM LTD. TAT Mitchell Noah Malone III CEO 29,196 $0.80 $23,356.80 1,553,230 view
P 2019-05-16 2019-05-17 17:47:41.0 Aqua Metals, Inc. AQMS KAPOOR SUSHIL director 5,000 $1.92 $9,600.00 45,812 view
P 2019-05-16 2019-05-17 17:54:59.0 BALLANTYNE STRONG, INC. BTN MOGLIA JOSEPH H CEO 3,626 $2.85 $10,333.00 1,229,690 view
P 2019-05-16 2019-05-17 17:54:59.0 BALLANTYNE STRONG, INC. BTN MOGLIA JOSEPH H CEO 3,626 $2.85 $10,333.00 1,244,780 view
P 2019-05-16 2019-05-17 18:15:51.0 Cypress Energy Partners, L.P. CELP Herbers Jeffrey A officer (SEE REMARKS) 3,000 $7.30 $21,900.00 3,000 view
P 2019-05-16 2019-05-17 18:55:59.0 Endurance International Group Holdings, Inc. EIGI OKUMUS AHMET H various various 10% owner 11,700 $4.88 $57,097.20 1.44631E7 view
P 2019-05-16 2019-05-17 18:59:51.0 LIFETIME BRANDS, INC LCUT JAFFE DAVID various various various various various various various various 10% owner 44,606 $9.59 $427,959.00 5,973,820 view
P 2019-05-16 2019-05-17 19:26:00.0 Watford Holdings Ltd. WTRE Hawley Robert L. CFO 2,000 $25.75 $51,500.00 6,000 view
P 2019-05-16 2019-05-17 19:26:00.0 Safehold Inc. SAFE ISTAR INC. 10% owner 4,562 $28.00 $127,736.00 7,854,070 view
P 2019-05-15 2019-05-17 08:08:43.0 NEWMARK GROUP, INC. NMRK Gosin Barry M CEO 1,200 $7.98 $9,576.00 2,771,660 view
P 2019-05-15 2019-05-17 08:08:43.0 MIDDLEFIELD BANC CORP MBCN MAST DARRYL E director 1,000 $39.65 $39,645.60 10,866 view
P 2019-05-15 2019-05-17 08:31:12.0 AUTONATION, INC. AN LIEBERT CARL C III CEO 2,575 $38.95 $100,296.00 2,575 view
P 2019-05-15 2019-05-17 08:42:16.0 Marathon Petroleum Corp MPC Templin Donald C. officer (Pres., Refining, Mktg & Supply) 5,000 $50.74 $253,696.00 5,000 view
P 2019-05-15 2019-05-17 09:25:05.0 CorMedix Inc. CRMD Dillione Janet 11,144 $6.74 $75,110.60 47,326 view
P 2019-05-15 2019-05-17 10:01:55.0 Spark Energy, Inc. SPKE Maxwell W Keith III director 10% owner 22,366 $9.83 $219,858.00 2,354,090 view
P 2019-05-15 2019-05-17 10:21:23.0 LINDE PLC LIN Bruch Christian officer (Executive VP Engineering) 1,474 $179.21 $264,156.00 9,932 view
P 2019-05-15 2019-05-17 10:22:29.0 LINDE PLC LIN Eulitz Bernd Hugo officer (Executive VP Americas Gases) 1,496 $179.21 $268,098.00 10,542 view
P 2019-05-15 2019-05-17 10:24:13.0 LINDE PLC LIN Lamba Sanjiv officer (Executive VP APAC Gases) 1,900 $179.21 $340,499.00 25,579 view
P 2019-05-15 2019-05-17 10:52:08.0 WESTERN ASSET GLOBAL HIGH INCOME FUND INC. EHI Weinstein Boaz various 10% owner 52,992 $9.68 $512,963.00 7,557,650 view
P 2019-05-15 2019-05-17 11:12:33.0 Pathfinder Bancorp, Inc. PBHC SCHNEIDER THOMAS W CEO 8,528 $14.98 $127,749.00 29,601 view
P 2019-05-15 2019-05-17 11:59:39.0 TIPTREE INC. TIPT Barnes Michael Gene director officer 10% owner (Executive Chairman) 187 $5.92 $1,107.04 7,819,640 view
P 2019-05-15 2019-05-17 11:59:39.0 TIPTREE INC. TIPT Barnes Michael Gene director officer 10% owner (Executive Chairman) 838 $5.97 $5,002.86 7,820,480 view
P 2019-05-15 2019-05-17 11:59:39.0 TIPTREE INC. TIPT Barnes Michael Gene director officer 10% owner (Executive Chairman) 1,000 $6.00 $6,000.00 7,821,480 view
P 2019-05-15 2019-05-17 11:59:39.0 TIPTREE INC. TIPT Barnes Michael Gene director officer 10% owner (Executive Chairman) 300 $6.01 $1,803.00 7,821,780 view
P 2019-05-15 2019-05-17 11:59:39.0 TIPTREE INC. TIPT Barnes Michael Gene director officer 10% owner (Executive Chairman) 182 $6.09 $1,108.38 7,821,960 view
P 2019-05-15 2019-05-17 11:59:39.0 TIPTREE INC. TIPT Barnes Michael Gene director officer 10% owner (Executive Chairman) 20 $6.10 $122.00 7,821,980 view
P 2019-05-15 2019-05-17 11:59:39.0 TIPTREE INC. TIPT Barnes Michael Gene director officer 10% owner (Executive Chairman) 956 $6.12 $5,850.72 7,822,940 view
P 2019-05-15 2019-05-17 11:59:39.0 TIPTREE INC. TIPT Barnes Michael Gene director officer 10% owner (Executive Chairman) 80 $6.13 $490.40 7,823,020 view
P 2019-05-15 2019-05-17 12:10:51.0 MONMOUTH REAL ESTATE INVESTMENT CORP MNR Miller Kevin S. CFO 150 $13.37 $1,999.99 47,307 view
P 2019-05-15 2019-05-17 12:19:46.0 MONMOUTH REAL ESTATE INVESTMENT CORP MNR LANDY MICHAEL P CEO 150 $13.37 $1,999.99 417,439 view
P 2019-05-15 2019-05-17 13:42:27.0 VAALCO ENERGY INC /DE/ EGY Thomas William R director 12,763 $1.70 $21,697.10 37,763 view
P 2019-05-15 2019-05-17 15:04:02.0 TerraForm Power, Inc. TERP Fong Christian S. director 2,000 $13.43 $26,869.60 10,017 view
P 2019-05-15 2019-05-17 15:22:21.0 CENTURY BANCORP INC CNBKA Delinsky Stephen R director 1 $92.70 $111.02 2,740 view
P 2019-05-15 2019-05-17 15:22:21.0 CENTURY BANCORP INC CNBKA Delinsky Stephen R director 0 $92.70 $19.14 160 view
P 2019-05-15 2019-05-17 15:22:21.0 CENTURY BANCORP INC CNBKA Delinsky Stephen R director 0 $92.70 $11.85 99 view
P 2019-05-15 2019-05-17 15:24:34.0 CENTURY BANCORP INC CNBKA WESTLING JON director 12 $92.70 $1,128.10 9,419 view
P 2019-05-15 2019-05-17 15:25:31.0 CENTURY BANCORP INC CNBKA Feeney Brian J. officer (Executive Vice President) 2 $92.70 $190.87 1,617 view
P 2019-05-15 2019-05-17 15:27:49.0 CENTURY BANCORP INC CNBKA Kay Linda Sloane director officer (Executive Vice President) 1 $92.70 $74.90 871 view
P 2019-05-15 2019-05-17 15:27:49.0 CENTURY BANCORP INC CNBKA Kay Linda Sloane director officer (Executive Vice President) 13 $92.70 $1,224.64 10,225 view
P 2019-05-15 2019-05-17 15:29:09.0 CENTURY BANCORP INC CNBKA EVANGELISTA PAUL A officer (Executive Vice President) 6 $92.70 $584.54 5,880 view
P 2019-05-15 2019-05-17 15:30:24.0 CENTURY BANCORP INC CNBKA SLOANE BARRY R director officer (CEO and President) 0 $92.70 $0.02 3,111 view
P 2019-05-15 2019-05-17 15:30:24.0 CENTURY BANCORP INC CNBKA SLOANE BARRY R director officer (CEO and President) 0 $92.70 $0.04 40 view
P 2019-05-15 2019-05-17 15:46:00.0 GERMAN AMERICAN BANCORP, INC. GABC KELLY JASON M 24 $29.05 $697.20 545 view
P 2019-05-15 2019-05-17 15:50:18.0 GERMAN AMERICAN BANCORP, INC. GABC Bawel Zachary W 48 $29.05 $1,394.40 3,419 view
P 2019-05-15 2019-05-17 15:55:45.0 GERMAN AMERICAN BANCORP, INC. GABC KLEM U BUTCH 96 $29.05 $2,788.80 176,067 view
P 2019-05-15 2019-05-17 16:04:04.0 GERMAN AMERICAN BANCORP, INC. GABC Ramsey Chris A 73 $29.05 $2,120.65 19,465 view
P 2019-05-15 2019-05-17 16:08:34.0 GERMAN AMERICAN BANCORP, INC. GABC SEGER THOMAS W 96 $29.05 $2,788.80 341,398 view
P 2019-05-15 2019-05-17 16:12:20.0 GERMAN AMERICAN BANCORP, INC. GABC Snowden Raymond Ward 72 $29.05 $2,091.60 29,919 view
P 2019-05-15 2019-05-17 16:34:04.0 Ready Capital Corp RC Sinai Todd M. director 3,500 $14.74 $51,589.60 20,260 view
P 2019-05-15 2019-05-17 16:38:38.0 AMERICAN SHARED HOSPITAL SERVICES AMC Stachowiak Raymond C director 10% owner 160,559 $2.73 $438,326.00 760,559 view
P 2019-05-15 2019-05-17 16:41:51.0 ENDONOVO THERAPEUTICS, INC. ENDV Collier Alan Brian CEO 5,000 $0.01 $67.00 2.17884E7 view
P 2019-05-15 2019-05-17 16:41:51.0 ENDONOVO THERAPEUTICS, INC. ENDV Collier Alan Brian CEO 2,000 $0.01 $28.80 2.17904E7 view
P 2019-05-15 2019-05-17 16:41:51.0 ENDONOVO THERAPEUTICS, INC. ENDV Collier Alan Brian CEO 5,000 $0.01 $75.00 2.17954E7 view
P 2019-05-15 2019-05-17 16:44:26.0 Montage Resources Corp MR Tolmachev Oleg E COO 2,400 $10.44 $25,068.00 90,594 view
P 2019-05-15 2019-05-17 17:01:46.0 Fiesta Restaurant Group, Inc. FRGI Jefferies Financial Group Inc. 148,948 $13.96 $2,078,790.00 4,320,720 view
P 2019-05-15 2019-05-17 17:05:45.0 Aeglea BioTherapeutics, Inc. AGLE Quinn Anthony G. CEO 6,256 $6.76 $42,269.30 283,408 view
P 2019-05-15 2019-05-17 17:09:22.0 COTY INC. COTY Pieraccioni Giovanni COO 93,100 $12.91 $1,202,200.00 93,100 view
P 2019-05-15 2019-05-17 17:24:00.0 TRANSATLANTIC PETROLEUM LTD. TAT Mitchell Noah Malone III CEO 606 $0.80 $484.80 1,524,040 view
P 2019-05-15 2019-05-17 17:40:24.0 Horizon Global Corp HZN Henderson Frederick A. director 10,000 $3.60 $36,000.00 69,199 view
P 2019-05-15 2019-05-17 17:54:59.0 BALLANTYNE STRONG, INC. BTN MOGLIA JOSEPH H CEO 3,626 $2.82 $10,227.50 1,226,060 view
P 2019-05-15 2019-05-17 17:54:59.0 BALLANTYNE STRONG, INC. BTN MOGLIA JOSEPH H CEO 3,626 $2.82 $10,227.50 1,241,160 view
P 2019-05-15 2019-05-17 18:09:53.0 Qurate Retail, Inc. QRTEA MAFFEI GREGORY B director officer (Chairman of the Board) 50,000 $12.75 $637,555.00 4,756,160 view
P 2019-05-15 2019-05-17 18:14:58.0 Cypress Energy Partners, L.P. CELP McNabb John T II director other 5,000 $7.44 $37,177.50 60,262 view
P 2019-05-15 2019-05-17 18:20:54.0 Nuveen Municipal 2021 Target Term Fund NHA ZIMMERMAN GIFFORD R officer (Secretary) 1,500 $9.61 $14,413.50 1,500 view
P 2019-05-15 2019-05-17 18:55:59.0 Endurance International Group Holdings, Inc. EIGI OKUMUS AHMET H various various 10% owner 32,500 $4.94 $160,391.00 1.44514E7 view
P 2019-05-15 2019-05-17 21:09:44.0 AMEDISYS INC AMED PERKINS BRUCE D director 2,500 $111.84 $279,596.00 22,088 view
P 2019-05-14 2019-05-17 13:42:27.0 VAALCO ENERGY INC /DE/ EGY Thomas William R director 25,000 $1.73 $43,250.00 25,000 view
P 2019-05-14 2019-05-17 16:41:51.0 ENDONOVO THERAPEUTICS, INC. ENDV Collier Alan Brian CEO 15,000 $0.01 $178.50 2.17764E7 view
P 2019-05-14 2019-05-17 16:41:51.0 ENDONOVO THERAPEUTICS, INC. ENDV Collier Alan Brian CEO 1,000 $0.01 $12.70 2.17774E7 view
P 2019-05-14 2019-05-17 16:41:51.0 ENDONOVO THERAPEUTICS, INC. ENDV Collier Alan Brian CEO 2,000 $0.01 $26.80 2.17794E7 view
P 2019-05-14 2019-05-17 16:41:51.0 ENDONOVO THERAPEUTICS, INC. ENDV Collier Alan Brian CEO 2,000 $0.01 $27.20 2.17814E7 view
P 2019-05-14 2019-05-17 16:41:51.0 ENDONOVO THERAPEUTICS, INC. ENDV Collier Alan Brian CEO 2,000 $0.01 $27.20 2.17834E7 view
P 2019-05-14 2019-05-17 18:55:53.0 Endurance International Group Holdings, Inc. EIGI OKUMUS AHMET H various various 10% owner 50,000 $4.99 $249,280.00 1.44189E7 view
P 2019-05-13 2019-05-17 15:00:10.0 AFFILIATED MANAGERS GROUP, INC. AMG Cutler Hugh officer (EVP, Global Distribution) 1,133 $91.66 $103,851.00 11,142 view
P 2019-05-13 2019-05-17 16:41:51.0 ENDONOVO THERAPEUTICS, INC. ENDV Collier Alan Brian CEO 2,000 $0.01 $24.80 2.17549E7 view
P 2019-05-13 2019-05-17 16:41:51.0 ENDONOVO THERAPEUTICS, INC. ENDV Collier Alan Brian officer (CEO) 50 $0.01 $0.62 2.17549E7 view
P 2019-05-13 2019-05-17 16:41:51.0 ENDONOVO THERAPEUTICS, INC. ENDV Collier Alan Brian officer (CEO) 50 $0.01 $0.62 2.1755E7 view
P 2019-05-13 2019-05-17 16:41:51.0 ENDONOVO THERAPEUTICS, INC. ENDV Collier Alan Brian CEO 4,900 $0.01 $61.25 2.17599E7 view
P 2019-05-13 2019-05-17 16:41:51.0 ENDONOVO THERAPEUTICS, INC. ENDV Collier Alan Brian CEO 1,500 $0.01 $21.75 2.17614E7 view
P 2019-05-13 2019-05-17 18:02:28.0 ARES CAPITAL CORP ARCC McKeever Steven B. director 5,640 $17.52 $98,812.80 19,370 view
P 2019-05-10 2019-05-17 13:04:02.0 SB FINANCIAL GROUP, INC. SBFG CARTER GEORGE W director 150 $17.99 $2,698.50 3,187 view
P 2019-03-15 2019-05-17 08:34:49.0 AMPCO PITTSBURGH CORP AP Louis Berkman Investment CO 10% owner 500 $4.02 $2,009.70 1,276,210 view
P 2019-03-15 2019-05-17 08:34:49.0 AMPCO PITTSBURGH CORP AP Louis Berkman Investment CO 10% owner 500 $4.03 $2,014.95 1,276,710 view
P 2019-03-15 2019-05-17 08:34:49.0 AMPCO PITTSBURGH CORP AP Louis Berkman Investment CO 10% owner 9,000 $4.01 $36,069.30 1,285,710 view
P 2019-02-15 2019-05-17 17:05:45.0 Aeglea BioTherapeutics, Inc. AGLE Quinn Anthony G. CEO 719 $7.10 $5,103.46 277,152 view
P 2018-11-08 2019-05-17 16:08:40.0 Coda Octopus Group, Inc. CODA van Vlissingen FH Fentener Drs. 10% owner 23,965 $4.40 $105,446.00 1,274,970 view
P 2018-09-14 2019-05-17 17:51:19.0 Independent Bank Group, Inc. IBTX SMITH G STACY director 25,000 $65.90 $1,647,390.00 28,808 view
P 2018-07-27 2019-05-17 17:52:07.0 Independent Bank Group, Inc. IBTX SMITH G STACY director 4,700 $68.56 $322,243.00 53,096 view
P 2018-07-27 2019-05-17 17:52:07.0 Independent Bank Group, Inc. IBTX SMITH G STACY director 5,300 $68.56 $363,381.00 56,904 view
P 2018-05-29 2019-05-17 17:52:23.0 Independent Bank Group, Inc. IBTX SMITH G STACY director 8,000 $72.83 $582,618.00 24,145 view
P 2018-05-25 2019-05-17 17:52:23.0 Independent Bank Group, Inc. IBTX SMITH G STACY director 12,750 $74.75 $953,015.00 75,855 view
P 2018-05-25 2019-05-17 17:52:23.0 Independent Bank Group, Inc. IBTX SMITH G STACY director 4,250 $74.75 $317,672.00 16,145 view
P 2018-03-27 2019-05-17 16:08:40.0 Coda Octopus Group, Inc. CODA van Vlissingen FH Fentener Drs. 10% owner 167,180 $3.35 $560,053.00 1,251,010 view
P 2018-03-26 2019-05-17 16:08:40.0 Coda Octopus Group, Inc. CODA van Vlissingen FH Fentener Drs. 10% owner 7,324 $3.35 $24,535.40 1,083,830 view
P 2018-02-13 2019-05-17 16:08:40.0 Coda Octopus Group, Inc. CODA van Vlissingen FH Fentener Drs. 10% owner 45,600 $4.65 $212,040.00 1,076,500 view
P 2018-02-12 2019-05-17 16:08:40.0 Coda Octopus Group, Inc. CODA van Vlissingen FH Fentener Drs. 10% owner 2,777 $4.61 $12,802.00 1,030,900 view
P 2017-12-28 2019-05-17 13:13:33.0 Sino Agro Food, Inc. SIAF D'Alessandro Garrett 10% owner 180,000 $0.93 $168,120.00 3,141,830 view
P 2017-12-21 2019-05-17 13:13:33.0 Sino Agro Food, Inc. SIAF D'Alessandro Garrett 10% owner 100,000 $1.03 $102,850.00 2,961,830 view
P 2017-12-20 2019-05-17 13:13:33.0 Sino Agro Food, Inc. SIAF D'Alessandro Garrett 10% owner 157,000 $1.08 $169,010.00 2,861,830 view
* Filed by insider as open market transaction, but marked as private transaction by insidercow's proprietary method